Etusivu
METAR-TAF:

METAR-TAF

Lentoasemat :

Kärdla, Viro

Kärdlan lentoasema

Leveyspiiri: 58-59N, Pituuspiiri: 022-49E, korkeus merenpinnasta: 5 m

Tämänhetkinen sää

Tämä raportti tehtiin 48 minuuttia sitten, kello 05.50 UTC
Tuuli 22 kn pohjoisen/luoteesta
Lämpötila 12°C
Kosteus 76%
Ilmanpaine 1008 hPa
Näkyvyys 10 km tai enemmän
Hajonneita pilviä 1900 ft:n korkeudessa

METAR: EEKA 240550Z 33022KT 9999 BKN019 12/08 Q1008

Aika: 09:38 (06:38 UTC)

Sääennuste

Tämä raportti tehtiin 3 tuntia ja 38 minuuttia sitten, kello 03.00 UTC
Ennuste voimassa 24. päivästä klo 04 UTC - 24. päivään klo 10 UTC
Tuuli 20 kn pohjoisen/luoteesta
Näkyvyys 10 km tai enemmän
Hajonneita pilviä 2000 ft:n korkeudessa
Todennäköisyys 40% :
Ajoittain
24. päivästä klo 04 UTC - 24. päivään klo 10 UTC
Tuuli 20 kn pohjoisen/luoteesta puuskistuen 30 kn:hen

TAF: EEKA 240300Z 2404/2410 34020KT 9999 BKN020 PROB40 TEMPO 2404/2410 34020G30KT

Säähavainnot ja -ennusteet yli 4000 lentoasemalta (METAR- ja TAF-raportit).

Käytössä olevat sääasemat on merkitty karttaan keltaisilla ja punaisilla pisteillä.

Aseta hiiri pisteen päälle nähdäksesi sääaseman nimen.

Klikkaa sitten nähdäksesi säähavainnot ja -ennusteet.

Kartan vaihtaminen: klikkaa mustalla rastilla varustettuja vihreitä pisteitä, niin voit zoomata sisään; viivalla varustettua vihreää pistettä, niin voit zoomata ulos tai vihreitä nuolia, niin pääset viereisille kartoille.


METAR-TAF: